sensor_id;sensor_type;location;lat;lon;timestamp;P1;durP1;ratioP1;P2;durP2;ratioP2
13408;SDS011;6775;49.574;11.170;2023-06-24T00:00:10;5.57;;;4.23;;
13408;SDS011;6775;49.574;11.170;2023-06-24T00:02:39;4.60;;;4.20;;
13408;SDS011;6775;49.574;11.170;2023-06-24T00:05:10;4.10;;;3.80;;
13408;SDS011;6775;49.574;11.170;2023-06-24T00:07:38;4.87;;;3.87;;
13408;SDS011;6775;49.574;11.170;2023-06-24T00:10:11;4.40;;;3.93;;
13408;SDS011;6775;49.574;11.170;2023-06-24T00:12:39;4.33;;;3.93;;
13408;SDS011;6775;49.574;11.170;2023-06-24T00:15:09;4.10;;;3.70;;
13408;SDS011;6775;49.574;11.170;2023-06-24T00:17:38;5.27;;;4.00;;
13408;SDS011;6775;49.574;11.170;2023-06-24T00:20:06;4.60;;;4.20;;
13408;SDS011;6775;49.574;11.170;2023-06-24T00:22:37;4.57;;;4.00;;
13408;SDS011;6775;49.574;11.170;2023-06-24T00:25:11;4.80;;;4.10;;
13408;SDS011;6775;49.574;11.170;2023-06-24T00:27:39;4.60;;;4.20;;
13408;SDS011;6775;49.574;11.170;2023-06-24T00:30:10;4.37;;;3.97;;
13408;SDS011;6775;49.574;11.170;2023-06-24T00:32:38;4.30;;;3.90;;
13408;SDS011;6775;49.574;11.170;2023-06-24T00:35:06;4.80;;;4.30;;
13408;SDS011;6775;49.574;11.170;2023-06-24T00:37:35;5.07;;;4.57;;
13408;SDS011;6775;49.574;11.170;2023-06-24T00:40:03;4.40;;;4.00;;
13408;SDS011;6775;49.574;11.170;2023-06-24T00:42:32;3.90;;;3.60;;
13408;SDS011;6775;49.574;11.170;2023-06-24T00:45:00;4.80;;;4.20;;
13408;SDS011;6775;49.574;11.170;2023-06-24T00:47:31;5.47;;;4.70;;
13408;SDS011;6775;49.574;11.170;2023-06-24T00:50:01;4.87;;;4.07;;
13408;SDS011;6775;49.574;11.170;2023-06-24T00:52:30;5.17;;;4.50;;
13408;SDS011;6775;49.574;11.170;2023-06-24T00:54:58;4.47;;;4.07;;
13408;SDS011;6775;49.574;11.170;2023-06-24T00:57:29;4.60;;;4.20;;
13408;SDS011;6775;49.574;11.170;2023-06-24T00:59:57;4.83;;;4.43;;
13408;SDS011;6775;49.574;11.170;2023-06-24T01:02:27;4.60;;;4.20;;
13408;SDS011;6775;49.574;11.170;2023-06-24T01:04:56;4.40;;;4.00;;
13408;SDS011;6775;49.574;11.170;2023-06-24T01:07:24;5.23;;;4.47;;
13408;SDS011;6775;49.574;11.170;2023-06-24T01:09:52;4.67;;;4.20;;
13408;SDS011;6775;49.574;11.170;2023-06-24T01:12:21;5.57;;;4.03;;
13408;SDS011;6775;49.574;11.170;2023-06-24T01:14:49;5.57;;;4.97;;
13408;SDS011;6775;49.574;11.170;2023-06-24T01:17:18;6.07;;;4.77;;
13408;SDS011;6775;49.574;11.170;2023-06-24T01:19:53;6.03;;;4.37;;
13408;SDS011;6775;49.574;11.170;2023-06-24T01:25:38;5.70;;;5.00;;
13408;SDS011;6775;49.574;11.170;2023-06-24T01:28:23;5.03;;;4.50;;
13408;SDS011;6775;49.574;11.170;2023-06-24T01:31:32;5.60;;;4.40;;
13408;SDS011;6775;49.574;11.170;2023-06-24T01:34:06;5.57;;;4.93;;
13408;SDS011;6775;49.574;11.170;2023-06-24T01:36:43;6.07;;;5.23;;
13408;SDS011;6775;49.574;11.170;2023-06-24T01:39:15;5.13;;;4.53;;
13408;SDS011;6775;49.574;11.170;2023-06-24T01:41:47;5.80;;;4.43;;
13408;SDS011;6775;49.574;11.170;2023-06-24T01:44:19;5.83;;;4.73;;
13408;SDS011;6775;49.574;11.170;2023-06-24T01:46:48;5.30;;;4.23;;
13408;SDS011;6775;49.574;11.170;2023-06-24T01:49:21;4.40;;;4.00;;
13408;SDS011;6775;49.574;11.170;2023-06-24T01:51:50;4.83;;;4.30;;
13408;SDS011;6775;49.574;11.170;2023-06-24T01:54:19;5.03;;;4.40;;
13408;SDS011;6775;49.574;11.170;2023-06-24T01:56:49;4.83;;;4.33;;
13408;SDS011;6775;49.574;11.170;2023-06-24T01:59:22;5.20;;;4.70;;
13408;SDS011;6775;49.574;11.170;2023-06-24T02:01:52;4.73;;;4.23;;
13408;SDS011;6775;49.574;11.170;2023-06-24T02:04:21;5.20;;;4.30;;
13408;SDS011;6775;49.574;11.170;2023-06-24T02:06:51;5.50;;;4.13;;
13408;SDS011;6775;49.574;11.170;2023-06-24T02:09:20;4.83;;;4.20;;
13408;SDS011;6775;49.574;11.170;2023-06-24T02:11:50;6.20;;;4.33;;
13408;SDS011;6775;49.574;11.170;2023-06-24T02:14:19;7.80;;;4.77;;
13408;SDS011;6775;49.574;11.170;2023-06-24T02:16:47;5.10;;;4.33;;
13408;SDS011;6775;49.574;11.170;2023-06-24T02:19:24;6.43;;;4.70;;
13408;SDS011;6775;49.574;11.170;2023-06-24T02:21:54;5.00;;;4.30;;
13408;SDS011;6775;49.574;11.170;2023-06-24T02:24:23;6.40;;;5.20;;
13408;SDS011;6775;49.574;11.170;2023-06-24T02:26:52;5.63;;;4.90;;
13408;SDS011;6775;49.574;11.170;2023-06-24T02:29:21;5.97;;;4.83;;
13408;SDS011;6775;49.574;11.170;2023-06-24T02:31:50;5.73;;;5.13;;
13408;SDS011;6775;49.574;11.170;2023-06-24T02:34:18;6.77;;;5.57;;
13408;SDS011;6775;49.574;11.170;2023-06-24T02:36:48;5.43;;;4.60;;
13408;SDS011;6775;49.574;11.170;2023-06-24T02:39:16;5.57;;;5.07;;
13408;SDS011;6775;49.574;11.170;2023-06-24T02:41:44;6.47;;;5.00;;
13408;SDS011;6775;49.574;11.170;2023-06-24T02:44:13;5.30;;;4.80;;
13408;SDS011;6775;49.574;11.170;2023-06-24T02:46:41;5.57;;;4.70;;
13408;SDS011;6775;49.574;11.170;2023-06-24T02:49:10;6.50;;;4.90;;
13408;SDS011;6775;49.574;11.170;2023-06-24T02:51:44;7.53;;;4.70;;
13408;SDS011;6775;49.574;11.170;2023-06-24T02:54:13;6.13;;;5.07;;
13408;SDS011;6775;49.574;11.170;2023-06-24T02:56:42;5.10;;;4.60;;
13408;SDS011;6775;49.574;11.170;2023-06-24T02:59:11;7.07;;;5.30;;
13408;SDS011;6775;49.574;11.170;2023-06-24T03:01:39;5.83;;;4.63;;
13408;SDS011;6775;49.574;11.170;2023-06-24T03:04:11;4.70;;;4.30;;
13408;SDS011;6775;49.574;11.170;2023-06-24T03:06:39;5.63;;;4.80;;
13408;SDS011;6775;49.574;11.170;2023-06-24T03:09:08;6.43;;;4.47;;
13408;SDS011;6775;49.574;11.170;2023-06-24T03:11:44;6.80;;;4.60;;
13408;SDS011;6775;49.574;11.170;2023-06-24T03:14:12;6.20;;;5.20;;
13408;SDS011;6775;49.574;11.170;2023-06-24T03:16:40;6.33;;;4.73;;
13408;SDS011;6775;49.574;11.170;2023-06-24T03:19:08;5.33;;;4.63;;
13408;SDS011;6775;49.574;11.170;2023-06-24T03:21:36;6.47;;;4.87;;
13408;SDS011;6775;49.574;11.170;2023-06-24T03:24:04;7.77;;;5.67;;
13408;SDS011;6775;49.574;11.170;2023-06-24T03:26:33;6.10;;;4.73;;
13408;SDS011;6775;49.574;11.170;2023-06-24T03:29:03;6.67;;;4.97;;
13408;SDS011;6775;49.574;11.170;2023-06-24T03:31:33;6.70;;;4.90;;
13408;SDS011;6775;49.574;11.170;2023-06-24T03:34:01;6.07;;;5.37;;
13408;SDS011;6775;49.574;11.170;2023-06-24T03:36:29;6.83;;;5.23;;
13408;SDS011;6775;49.574;11.170;2023-06-24T03:38:57;5.43;;;4.87;;
13408;SDS011;6775;49.574;11.170;2023-06-24T03:41:25;7.17;;;5.30;;
13408;SDS011;6775;49.574;11.170;2023-06-24T03:43:52;6.60;;;5.20;;
13408;SDS011;6775;49.574;11.170;2023-06-24T03:46:23;5.93;;;4.83;;
13408;SDS011;6775;49.574;11.170;2023-06-24T03:48:52;7.30;;;5.87;;
13408;SDS011;6775;49.574;11.170;2023-06-24T03:51:20;7.27;;;5.60;;
13408;SDS011;6775;49.574;11.170;2023-06-24T03:53:47;7.53;;;6.13;;
13408;SDS011;6775;49.574;11.170;2023-06-24T03:56:16;7.33;;;5.93;;
13408;SDS011;6775;49.574;11.170;2023-06-24T03:58:44;7.37;;;6.37;;
13408;SDS011;6775;49.574;11.170;2023-06-24T04:01:12;6.50;;;5.90;;
13408;SDS011;6775;49.574;11.170;2023-06-24T04:03:41;7.23;;;6.20;;
13408;SDS011;6775;49.574;11.170;2023-06-24T04:06:09;5.47;;;4.93;;
13408;SDS011;6775;49.574;11.170;2023-06-24T04:08:37;5.80;;;5.03;;
13408;SDS011;6775;49.574;11.170;2023-06-24T04:11:06;6.57;;;5.70;;
13408;SDS011;6775;49.574;11.170;2023-06-24T04:13:34;6.27;;;5.20;;
13408;SDS011;6775;49.574;11.170;2023-06-24T04:16:02;7.30;;;5.27;;
13408;SDS011;6775;49.574;11.170;2023-06-24T04:18:30;5.80;;;5.20;;
13408;SDS011;6775;49.574;11.170;2023-06-24T04:20:59;6.13;;;5.17;;
13408;SDS011;6775;49.574;11.170;2023-06-24T04:23:27;6.07;;;5.17;;
13408;SDS011;6775;49.574;11.170;2023-06-24T04:25:54;5.27;;;4.77;;
13408;SDS011;6775;49.574;11.170;2023-06-24T04:28:22;7.53;;;5.77;;
13408;SDS011;6775;49.574;11.170;2023-06-24T04:30:50;6.73;;;5.07;;
13408;SDS011;6775;49.574;11.170;2023-06-24T04:33:18;6.63;;;5.60;;
13408;SDS011;6775;49.574;11.170;2023-06-24T04:35:46;5.90;;;5.30;;
13408;SDS011;6775;49.574;11.170;2023-06-24T04:38:16;6.43;;;4.90;;
13408;SDS011;6775;49.574;11.170;2023-06-24T04:40:44;5.57;;;4.60;;
13408;SDS011;6775;49.574;11.170;2023-06-24T04:43:12;6.67;;;5.10;;
13408;SDS011;6775;49.574;11.170;2023-06-24T04:45:40;5.30;;;4.80;;
13408;SDS011;6775;49.574;11.170;2023-06-24T04:48:08;5.27;;;4.50;;
13408;SDS011;6775;49.574;11.170;2023-06-24T04:50:36;6.10;;;5.03;;
13408;SDS011;6775;49.574;11.170;2023-06-24T04:53:04;5.67;;;5.07;;
13408;SDS011;6775;49.574;11.170;2023-06-24T04:55:34;5.77;;;5.17;;
13408;SDS011;6775;49.574;11.170;2023-06-24T04:58:02;5.50;;;4.60;;
13408;SDS011;6775;49.574;11.170;2023-06-24T05:00:30;5.20;;;4.67;;
13408;SDS011;6775;49.574;11.170;2023-06-24T05:02:58;5.30;;;4.80;;
13408;SDS011;6775;49.574;11.170;2023-06-24T05:05:25;5.93;;;5.33;;
13408;SDS011;6775;49.574;11.170;2023-06-24T05:07:53;7.43;;;5.20;;
13408;SDS011;6775;49.574;11.170;2023-06-24T05:10:21;6.17;;;5.00;;
13408;SDS011;6775;49.574;11.170;2023-06-24T05:12:51;5.97;;;5.37;;
13408;SDS011;6775;49.574;11.170;2023-06-24T05:15:18;6.67;;;5.33;;
13408;SDS011;6775;49.574;11.170;2023-06-24T05:17:46;6.63;;;5.67;;
13408;SDS011;6775;49.574;11.170;2023-06-24T05:20:18;6.40;;;5.37;;
13408;SDS011;6775;49.574;11.170;2023-06-24T05:22:46;7.40;;;5.87;;
13408;SDS011;6775;49.574;11.170;2023-06-24T05:25:14;7.40;;;5.70;;
13408;SDS011;6775;49.574;11.170;2023-06-24T05:27:42;6.43;;;5.83;;
13408;SDS011;6775;49.574;11.170;2023-06-24T05:30:12;5.93;;;5.33;;
13408;SDS011;6775;49.574;11.170;2023-06-24T05:32:40;6.77;;;5.33;;
13408;SDS011;6775;49.574;11.170;2023-06-24T05:35:08;4.93;;;4.00;;
13408;SDS011;6775;49.574;11.170;2023-06-24T05:37:36;5.70;;;5.10;;
13408;SDS011;6775;49.574;11.170;2023-06-24T05:40:05;6.80;;;5.63;;
13408;SDS011;6775;49.574;11.170;2023-06-24T05:42:34;5.67;;;5.07;;
13408;SDS011;6775;49.574;11.170;2023-06-24T05:45:02;5.93;;;5.40;;
13408;SDS011;6775;49.574;11.170;2023-06-24T05:47:31;6.20;;;5.07;;
13408;SDS011;6775;49.574;11.170;2023-06-24T05:49:59;5.67;;;4.53;;
13408;SDS011;6775;49.574;11.170;2023-06-24T05:52:27;4.87;;;4.20;;
13408;SDS011;6775;49.574;11.170;2023-06-24T05:54:55;5.57;;;4.87;;
13408;SDS011;6775;49.574;11.170;2023-06-24T05:57:23;5.33;;;4.50;;
13408;SDS011;6775;49.574;11.170;2023-06-24T05:59:51;4.27;;;3.87;;
13408;SDS011;6775;49.574;11.170;2023-06-24T06:02:19;4.93;;;4.30;;
13408;SDS011;6775;49.574;11.170;2023-06-24T06:04:48;4.60;;;4.20;;
13408;SDS011;6775;49.574;11.170;2023-06-24T06:07:17;4.83;;;4.33;;
13408;SDS011;6775;49.574;11.170;2023-06-24T06:09:44;4.23;;;3.63;;
13408;SDS011;6775;49.574;11.170;2023-06-24T06:12:12;3.80;;;3.37;;
13408;SDS011;6775;49.574;11.170;2023-06-24T06:14:40;3.87;;;3.53;;
13408;SDS011;6775;49.574;11.170;2023-06-24T06:17:08;3.83;;;3.43;;
13408;SDS011;6775;49.574;11.170;2023-06-24T06:19:36;3.93;;;3.47;;
13408;SDS011;6775;49.574;11.170;2023-06-24T06:22:07;3.10;;;2.80;;
13408;SDS011;6775;49.574;11.170;2023-06-24T06:24:35;3.43;;;3.13;;
13408;SDS011;6775;49.574;11.170;2023-06-24T06:27:03;3.40;;;3.10;;
13408;SDS011;6775;49.574;11.170;2023-06-24T06:29:31;3.37;;;3.07;;
13408;SDS011;6775;49.574;11.170;2023-06-24T06:31:59;2.40;;;2.20;;
13408;SDS011;6775;49.574;11.170;2023-06-24T06:34:26;2.63;;;2.43;;
13408;SDS011;6775;49.574;11.170;2023-06-24T06:36:54;2.90;;;2.60;;
13408;SDS011;6775;49.574;11.170;2023-06-24T06:39:23;2.83;;;2.53;;
13408;SDS011;6775;49.574;11.170;2023-06-24T06:41:51;2.70;;;2.50;;
13408;SDS011;6775;49.574;11.170;2023-06-24T06:44:19;3.43;;;2.90;;
13408;SDS011;6775;49.574;11.170;2023-06-24T06:46:47;3.30;;;3.00;;
13408;SDS011;6775;49.574;11.170;2023-06-24T06:49:15;2.73;;;2.53;;
13408;SDS011;6775;49.574;11.170;2023-06-24T06:51:43;3.20;;;2.90;;
13408;SDS011;6775;49.574;11.170;2023-06-24T06:54:11;3.20;;;2.83;;
13408;SDS011;6775;49.574;11.170;2023-06-24T06:56:40;4.13;;;3.47;;
13408;SDS011;6775;49.574;11.170;2023-06-24T06:59:08;12.57;;;7.83;;
13408;SDS011;6775;49.574;11.170;2023-06-24T07:01:36;13.40;;;10.20;;
13408;SDS011;6775;49.574;11.170;2023-06-24T07:04:04;11.53;;;8.80;;
13408;SDS011;6775;49.574;11.170;2023-06-24T07:06:32;9.73;;;8.10;;
13408;SDS011;6775;49.574;11.170;2023-06-24T07:09:00;9.20;;;7.13;;
13408;SDS011;6775;49.574;11.170;2023-06-24T07:11:28;7.97;;;6.23;;
13408;SDS011;6775;49.574;11.170;2023-06-24T07:13:57;7.70;;;6.10;;
13408;SDS011;6775;49.574;11.170;2023-06-24T07:16:25;5.37;;;4.70;;
13408;SDS011;6775;49.574;11.170;2023-06-24T07:18:53;5.17;;;4.40;;
13408;SDS011;6775;49.574;11.170;2023-06-24T07:21:21;4.60;;;4.10;;
13408;SDS011;6775;49.574;11.170;2023-06-24T07:23:49;3.77;;;3.37;;
13408;SDS011;6775;49.574;11.170;2023-06-24T07:26:17;4.73;;;3.57;;
13408;SDS011;6775;49.574;11.170;2023-06-24T07:28:44;3.50;;;3.20;;
13408;SDS011;6775;49.574;11.170;2023-06-24T07:31:30;3.33;;;3.03;;
13408;SDS011;6775;49.574;11.170;2023-06-24T07:33:58;3.20;;;2.90;;
13408;SDS011;6775;49.574;11.170;2023-06-24T07:36:26;2.83;;;2.50;;
13408;SDS011;6775;49.574;11.170;2023-06-24T07:38:54;2.87;;;2.60;;
13408;SDS011;6775;49.574;11.170;2023-06-24T07:41:22;2.50;;;2.30;;
13408;SDS011;6775;49.574;11.170;2023-06-24T07:43:50;2.80;;;2.50;;
13408;SDS011;6775;49.574;11.170;2023-06-24T07:46:17;2.90;;;2.67;;
13408;SDS011;6775;49.574;11.170;2023-06-24T07:48:47;3.53;;;3.23;;
13408;SDS011;6775;49.574;11.170;2023-06-24T07:51:14;3.03;;;2.70;;
13408;SDS011;6775;49.574;11.170;2023-06-24T07:53:42;2.73;;;2.37;;
13408;SDS011;6775;49.574;11.170;2023-06-24T07:56:10;4.30;;;3.90;;
13408;SDS011;6775;49.574;11.170;2023-06-24T07:58:38;5.00;;;4.50;;
13408;SDS011;6775;49.574;11.170;2023-06-24T08:01:06;5.20;;;4.70;;
13408;SDS011;6775;49.574;11.170;2023-06-24T08:03:33;4.37;;;3.97;;
13408;SDS011;6775;49.574;11.170;2023-06-24T08:06:04;3.93;;;3.40;;
13408;SDS011;6775;49.574;11.170;2023-06-24T08:08:32;3.50;;;3.20;;
13408;SDS011;6775;49.574;11.170;2023-06-24T08:11:00;4.10;;;3.40;;
13408;SDS011;6775;49.574;11.170;2023-06-24T08:13:28;3.00;;;2.70;;
13408;SDS011;6775;49.574;11.170;2023-06-24T08:15:56;3.47;;;3.17;;
13408;SDS011;6775;49.574;11.170;2023-06-24T08:18:24;3.03;;;2.77;;
13408;SDS011;6775;49.574;11.170;2023-06-24T08:20:51;3.00;;;2.77;;
13408;SDS011;6775;49.574;11.170;2023-06-24T08:23:21;3.20;;;2.80;;
13408;SDS011;6775;49.574;11.170;2023-06-24T08:25:48;3.17;;;2.83;;
13408;SDS011;6775;49.574;11.170;2023-06-24T08:28:21;2.97;;;2.77;;
13408;SDS011;6775;49.574;11.170;2023-06-24T08:30:49;2.80;;;2.60;;
13408;SDS011;6775;49.574;11.170;2023-06-24T08:33:17;3.20;;;2.90;;
13408;SDS011;6775;49.574;11.170;2023-06-24T08:35:45;3.10;;;2.90;;
13408;SDS011;6775;49.574;11.170;2023-06-24T08:38:13;3.33;;;3.03;;
13408;SDS011;6775;49.574;11.170;2023-06-24T08:40:42;3.03;;;2.73;;
13408;SDS011;6775;49.574;11.170;2023-06-24T08:43:11;2.80;;;2.60;;
13408;SDS011;6775;49.574;11.170;2023-06-24T08:45:40;3.67;;;3.27;;
13408;SDS011;6775;49.574;11.170;2023-06-24T08:48:07;2.90;;;2.70;;
13408;SDS011;6775;49.574;11.170;2023-06-24T08:50:36;2.83;;;2.60;;
13408;SDS011;6775;49.574;11.170;2023-06-24T08:53:10;2.43;;;2.23;;
13408;SDS011;6775;49.574;11.170;2023-06-24T08:55:39;2.70;;;2.40;;
13408;SDS011;6775;49.574;11.170;2023-06-24T08:58:11;3.53;;;3.23;;
13408;SDS011;6775;49.574;11.170;2023-06-24T09:00:39;2.63;;;2.43;;
13408;SDS011;6775;49.574;11.170;2023-06-24T09:03:09;2.87;;;2.67;;
13408;SDS011;6775;49.574;11.170;2023-06-24T09:05:37;3.10;;;2.83;;
13408;SDS011;6775;49.574;11.170;2023-06-24T09:08:04;2.80;;;2.60;;
13408;SDS011;6775;49.574;11.170;2023-06-24T09:10:33;2.57;;;2.10;;
13408;SDS011;6775;49.574;11.170;2023-06-24T09:13:01;2.47;;;2.27;;
13408;SDS011;6775;49.574;11.170;2023-06-24T09:15:32;3.00;;;2.63;;
13408;SDS011;6775;49.574;11.170;2023-06-24T09:18:00;2.40;;;2.20;;
13408;SDS011;6775;49.574;11.170;2023-06-24T09:20:29;3.03;;;2.47;;
13408;SDS011;6775;49.574;11.170;2023-06-24T09:22:58;2.67;;;2.47;;
13408;SDS011;6775;49.574;11.170;2023-06-24T09:25:27;2.77;;;2.57;;
13408;SDS011;6775;49.574;11.170;2023-06-24T09:27:55;2.43;;;2.23;;
13408;SDS011;6775;49.574;11.170;2023-06-24T09:30:27;2.40;;;2.20;;
13408;SDS011;6775;49.574;11.170;2023-06-24T09:32:56;2.67;;;2.47;;
13408;SDS011;6775;49.574;11.170;2023-06-24T09:35:24;2.83;;;2.63;;
13408;SDS011;6775;49.574;11.170;2023-06-24T09:37:53;2.20;;;2.00;;
13408;SDS011;6775;49.574;11.170;2023-06-24T09:40:22;2.10;;;2.00;;
13408;SDS011;6775;49.574;11.170;2023-06-24T09:42:51;2.57;;;2.37;;
13408;SDS011;6775;49.574;11.170;2023-06-24T09:45:20;2.53;;;2.20;;
13408;SDS011;6775;49.574;11.170;2023-06-24T09:47:49;2.43;;;2.23;;
13408;SDS011;6775;49.574;11.170;2023-06-24T09:50:18;2.30;;;2.10;;
13408;SDS011;6775;49.574;11.170;2023-06-24T09:52:46;2.40;;;2.20;;
13408;SDS011;6775;49.574;11.170;2023-06-24T09:55:16;2.30;;;2.10;;
13408;SDS011;6775;49.574;11.170;2023-06-24T09:57:45;2.50;;;2.30;;
13408;SDS011;6775;49.574;11.170;2023-06-24T10:00:14;1.83;;;1.73;;
13408;SDS011;6775;49.574;11.170;2023-06-24T10:02:45;2.50;;;2.30;;
13408;SDS011;6775;49.574;11.170;2023-06-24T10:05:15;2.43;;;2.00;;
13408;SDS011;6775;49.574;11.170;2023-06-24T10:07:44;2.30;;;2.10;;
13408;SDS011;6775;49.574;11.170;2023-06-24T10:10:13;1.97;;;1.80;;
13408;SDS011;6775;49.574;11.170;2023-06-24T10:12:40;2.13;;;1.90;;
13408;SDS011;6775;49.574;11.170;2023-06-24T10:15:09;2.00;;;1.90;;
13408;SDS011;6775;49.574;11.170;2023-06-24T10:17:37;2.60;;;2.40;;
13408;SDS011;6775;49.574;11.170;2023-06-24T10:20:05;1.93;;;1.80;;
13408;SDS011;6775;49.574;11.170;2023-06-24T10:22:34;2.80;;;1.97;;
13408;SDS011;6775;49.574;11.170;2023-06-24T10:25:05;2.63;;;2.40;;
13408;SDS011;6775;49.574;11.170;2023-06-24T10:27:38;2.70;;;2.50;;
13408;SDS011;6775;49.574;11.170;2023-06-24T10:30:08;2.60;;;2.40;;
13408;SDS011;6775;49.574;11.170;2023-06-24T10:32:45;3.20;;;2.70;;
13408;SDS011;6775;49.574;11.170;2023-06-24T10:35:22;2.50;;;2.30;;
13408;SDS011;6775;49.574;11.170;2023-06-24T10:37:55;2.87;;;2.03;;
13408;SDS011;6775;49.574;11.170;2023-06-24T10:40:38;2.20;;;2.00;;
13408;SDS011;6775;49.574;11.170;2023-06-24T10:45:53;2.30;;;2.10;;
13408;SDS011;6775;49.574;11.170;2023-06-24T10:48:22;2.27;;;2.07;;
13408;SDS011;6775;49.574;11.170;2023-06-24T10:50:50;2.73;;;2.40;;
13408;SDS011;6775;49.574;11.170;2023-06-24T10:53:18;2.63;;;2.43;;
13408;SDS011;6775;49.574;11.170;2023-06-24T10:55:47;2.23;;;2.03;;
13408;SDS011;6775;49.574;11.170;2023-06-24T10:58:15;3.53;;;2.50;;
13408;SDS011;6775;49.574;11.170;2023-06-24T11:00:43;3.93;;;2.50;;
13408;SDS011;6775;49.574;11.170;2023-06-24T11:03:13;2.70;;;2.50;;
13408;SDS011;6775;49.574;11.170;2023-06-24T11:05:43;2.63;;;2.43;;
13408;SDS011;6775;49.574;11.170;2023-06-24T11:08:11;2.47;;;2.27;;
13408;SDS011;6775;49.574;11.170;2023-06-24T11:10:43;2.87;;;2.60;;
13408;SDS011;6775;49.574;11.170;2023-06-24T11:13:13;2.67;;;2.47;;
13408;SDS011;6775;49.574;11.170;2023-06-24T11:15:42;2.80;;;2.60;;
13408;SDS011;6775;49.574;11.170;2023-06-24T11:18:10;3.33;;;2.50;;
13408;SDS011;6775;49.574;11.170;2023-06-24T11:20:38;2.20;;;1.90;;
13408;SDS011;6775;49.574;11.170;2023-06-24T11:23:07;2.40;;;2.20;;
13408;SDS011;6775;49.574;11.170;2023-06-24T11:25:39;2.23;;;2.03;;
13408;SDS011;6775;49.574;11.170;2023-06-24T11:28:16;2.37;;;2.07;;
13408;SDS011;6775;49.574;11.170;2023-06-24T11:30:48;2.20;;;2.00;;
13408;SDS011;6775;49.574;11.170;2023-06-24T11:33:25;2.60;;;2.20;;
13408;SDS011;6775;49.574;11.170;2023-06-24T11:35:54;1.63;;;1.53;;
13408;SDS011;6775;49.574;11.170;2023-06-24T11:38:21;2.60;;;2.30;;
13408;SDS011;6775;49.574;11.170;2023-06-24T11:40:50;2.50;;;2.30;;
13408;SDS011;6775;49.574;11.170;2023-06-24T11:43:19;2.20;;;2.00;;
13408;SDS011;6775;49.574;11.170;2023-06-24T11:45:48;2.00;;;1.90;;
13408;SDS011;6775;49.574;11.170;2023-06-24T11:48:16;2.03;;;1.90;;
13408;SDS011;6775;49.574;11.170;2023-06-24T11:50:43;1.77;;;1.67;;
13408;SDS011;6775;49.574;11.170;2023-06-24T11:53:11;2.10;;;2.00;;
13408;SDS011;6775;49.574;11.170;2023-06-24T11:55:39;2.37;;;2.17;;
13408;SDS011;6775;49.574;11.170;2023-06-24T11:58:07;2.50;;;2.30;;
13408;SDS011;6775;49.574;11.170;2023-06-24T12:00:38;2.43;;;2.23;;
13408;SDS011;6775;49.574;11.170;2023-06-24T12:03:07;2.27;;;2.07;;
13408;SDS011;6775;49.574;11.170;2023-06-24T12:05:38;2.43;;;2.23;;
13408;SDS011;6775;49.574;11.170;2023-06-24T12:08:11;2.70;;;2.10;;
13408;SDS011;6775;49.574;11.170;2023-06-24T12:10:40;2.37;;;2.17;;
13408;SDS011;6775;49.574;11.170;2023-06-24T12:13:08;2.23;;;2.03;;
13408;SDS011;6775;49.574;11.170;2023-06-24T12:15:37;2.30;;;2.10;;
13408;SDS011;6775;49.574;11.170;2023-06-24T12:18:05;2.30;;;1.80;;
13408;SDS011;6775;49.574;11.170;2023-06-24T12:20:33;1.90;;;1.80;;
13408;SDS011;6775;49.574;11.170;2023-06-24T12:23:04;1.80;;;1.70;;
13408;SDS011;6775;49.574;11.170;2023-06-24T12:25:32;2.00;;;1.90;;
13408;SDS011;6775;49.574;11.170;2023-06-24T12:28:00;1.80;;;1.70;;
13408;SDS011;6775;49.574;11.170;2023-06-24T12:30:28;2.17;;;1.80;;
13408;SDS011;6775;49.574;11.170;2023-06-24T12:32:57;2.40;;;2.20;;
13408;SDS011;6775;49.574;11.170;2023-06-24T12:35:25;2.10;;;2.00;;
13408;SDS011;6775;49.574;11.170;2023-06-24T12:37:53;2.20;;;2.00;;
13408;SDS011;6775;49.574;11.170;2023-06-24T12:40:21;1.90;;;1.80;;
13408;SDS011;6775;49.574;11.170;2023-06-24T12:42:49;2.43;;;2.03;;
13408;SDS011;6775;49.574;11.170;2023-06-24T12:45:17;2.50;;;2.30;;
13408;SDS011;6775;49.574;11.170;2023-06-24T12:47:45;2.23;;;2.03;;
13408;SDS011;6775;49.574;11.170;2023-06-24T12:50:15;2.10;;;2.00;;
13408;SDS011;6775;49.574;11.170;2023-06-24T12:52:43;1.77;;;1.67;;
13408;SDS011;6775;49.574;11.170;2023-06-24T12:55:10;2.20;;;2.00;;
13408;SDS011;6775;49.574;11.170;2023-06-24T12:57:42;2.00;;;1.90;;
13408;SDS011;6775;49.574;11.170;2023-06-24T13:00:11;2.30;;;2.10;;
13408;SDS011;6775;49.574;11.170;2023-06-24T13:02:40;2.30;;;2.10;;
13408;SDS011;6775;49.574;11.170;2023-06-24T13:05:07;3.03;;;2.30;;
13408;SDS011;6775;49.574;11.170;2023-06-24T13:07:37;2.47;;;2.27;;
13408;SDS011;6775;49.574;11.170;2023-06-24T13:10:05;2.70;;;2.50;;
13408;SDS011;6775;49.574;11.170;2023-06-24T13:12:33;2.37;;;2.17;;
13408;SDS011;6775;49.574;11.170;2023-06-24T13:15:02;2.70;;;2.50;;
13408;SDS011;6775;49.574;11.170;2023-06-24T13:17:30;3.23;;;2.43;;
13408;SDS011;6775;49.574;11.170;2023-06-24T13:19:58;2.30;;;2.10;;
13408;SDS011;6775;49.574;11.170;2023-06-24T13:22:27;2.20;;;2.00;;
13408;SDS011;6775;49.574;11.170;2023-06-24T13:24:57;3.13;;;2.30;;
13408;SDS011;6775;49.574;11.170;2023-06-24T13:27:24;2.20;;;2.00;;
13408;SDS011;6775;49.574;11.170;2023-06-24T13:29:52;3.00;;;2.20;;
13408;SDS011;6775;49.574;11.170;2023-06-24T13:32:20;2.30;;;2.07;;
13408;SDS011;6775;49.574;11.170;2023-06-24T13:34:49;2.20;;;2.00;;
13408;SDS011;6775;49.574;11.170;2023-06-24T13:37:17;2.20;;;2.00;;
13408;SDS011;6775;49.574;11.170;2023-06-24T13:39:45;2.40;;;2.00;;
13408;SDS011;6775;49.574;11.170;2023-06-24T13:42:14;2.97;;;2.17;;
13408;SDS011;6775;49.574;11.170;2023-06-24T13:44:42;2.80;;;2.17;;
13408;SDS011;6775;49.574;11.170;2023-06-24T13:47:11;2.23;;;2.03;;
13408;SDS011;6775;49.574;11.170;2023-06-24T13:49:39;2.30;;;2.10;;
13408;SDS011;6775;49.574;11.170;2023-06-24T13:52:07;2.40;;;2.20;;
13408;SDS011;6775;49.574;11.170;2023-06-24T13:54:34;2.23;;;1.97;;
13408;SDS011;6775;49.574;11.170;2023-06-24T13:57:02;2.70;;;2.40;;
13408;SDS011;6775;49.574;11.170;2023-06-24T13:59:31;2.90;;;2.10;;
13408;SDS011;6775;49.574;11.170;2023-06-24T14:01:59;2.30;;;2.10;;
13408;SDS011;6775;49.574;11.170;2023-06-24T14:04:28;2.60;;;2.40;;
13408;SDS011;6775;49.574;11.170;2023-06-24T14:06:55;2.30;;;2.10;;
13408;SDS011;6775;49.574;11.170;2023-06-24T14:09:24;2.87;;;2.53;;
13408;SDS011;6775;49.574;11.170;2023-06-24T14:11:52;2.63;;;2.43;;
13408;SDS011;6775;49.574;11.170;2023-06-24T14:14:21;2.53;;;2.33;;
13408;SDS011;6775;49.574;11.170;2023-06-24T14:16:50;2.53;;;2.33;;
13408;SDS011;6775;49.574;11.170;2023-06-24T14:19:18;2.83;;;2.43;;
13408;SDS011;6775;49.574;11.170;2023-06-24T14:21:49;2.47;;;2.27;;
13408;SDS011;6775;49.574;11.170;2023-06-24T14:24:17;2.47;;;2.20;;
13408;SDS011;6775;49.574;11.170;2023-06-24T14:26:45;2.60;;;2.40;;
13408;SDS011;6775;49.574;11.170;2023-06-24T14:29:15;2.90;;;2.53;;
13408;SDS011;6775;49.574;11.170;2023-06-24T14:31:43;3.17;;;2.87;;
13408;SDS011;6775;49.574;11.170;2023-06-24T14:34:13;2.97;;;2.70;;
13408;SDS011;6775;49.574;11.170;2023-06-24T14:36:41;2.80;;;2.60;;
13408;SDS011;6775;49.574;11.170;2023-06-24T14:39:08;2.80;;;2.50;;
13408;SDS011;6775;49.574;11.170;2023-06-24T14:41:36;2.90;;;2.60;;
13408;SDS011;6775;49.574;11.170;2023-06-24T14:44:04;2.40;;;2.20;;
13408;SDS011;6775;49.574;11.170;2023-06-24T14:46:32;4.27;;;2.50;;
13408;SDS011;6775;49.574;11.170;2023-06-24T14:49:00;2.37;;;2.17;;
13408;SDS011;6775;49.574;11.170;2023-06-24T14:51:29;2.30;;;2.10;;
13408;SDS011;6775;49.574;11.170;2023-06-24T14:53:57;2.57;;;2.00;;
13408;SDS011;6775;49.574;11.170;2023-06-24T14:56:25;2.73;;;2.13;;
13408;SDS011;6775;49.574;11.170;2023-06-24T14:58:53;2.70;;;2.50;;
13408;SDS011;6775;49.574;11.170;2023-06-24T15:01:21;2.60;;;2.40;;
13408;SDS011;6775;49.574;11.170;2023-06-24T15:03:49;2.70;;;2.50;;